Time;durP1;ratioP1;P1;durP2;ratioP2;P2;SDS_P1;SDS_P2;PMS_P1;PMS_P2;Temp;Humidity;BMP_temperature;BMP_pressure;BME280_temperature;BME280_humidity;BME280_pressure;Samples;Min_cycle;Max_cycle;Signal;HPM_P1;HPM_P2
2021/03/10 00:01:02;;;;;;;5.33;2.40;;;;;;;-2.14;46.85;101805.77;1861043;77;20981;-76
2021/03/10 00:03:30;;;;;;;4.75;3.42;;;;;;;-2.10;46.67;101804.97;1861026;77;20918;-78
2021/03/10 00:05:58;;;;;;;3.47;2.67;;;;;;;-2.06;46.88;101802.03;1861079;77;21029;-77
2021/03/10 00:08:27;;;;;;;3.77;2.52;;;;;;;-2.07;46.29;101802.00;1861036;77;21325;-76
2021/03/10 00:10:55;;;;;;;6.80;2.55;;;;;;;-2.14;46.81;101803.20;1861042;77;21747;-77
2021/03/10 00:13:23;;;;;;;2.45;2.25;;;;;;;-2.14;46.35;101799.78;1860962;77;20989;-76
2021/03/10 00:15:51;;;;;;;3.77;2.20;;;;;;;-2.16;45.75;101800.19;1861064;77;20985;-76
2021/03/10 00:18:21;;;;;;;2.08;1.70;;;;;;;-2.21;45.37;101793.71;1861016;77;20985;-76
2021/03/10 00:20:49;;;;;;;4.83;2.65;;;;;;;-2.20;45.05;101794.17;1861080;76;21558;-76
2021/03/10 00:23:17;;;;;;;1.98;1.80;;;;;;;-2.23;45.11;101792.83;1861144;77;21364;-76
2021/03/10 00:25:45;;;;;;;2.92;1.87;;;;;;;-2.22;45.26;101797.14;1861093;77;21360;-75
2021/03/10 00:28:13;;;;;;;4.33;2.05;;;;;;;-2.27;44.83;101800.05;1860898;77;20922;-76
2021/03/10 00:30:41;;;;;;;2.85;1.85;;;;;;;-2.32;45.21;101788.88;1861048;76;20981;-75
2021/03/10 00:33:09;;;;;;;3.50;2.05;;;;;;;-2.35;44.91;101790.98;1861132;76;21592;-76
2021/03/10 00:35:37;;;;;;;1.87;1.70;;;;;;;-2.38;44.81;101797.78;1861046;77;21449;-76
2021/03/10 00:38:05;;;;;;;5.97;1.95;;;;;;;-2.41;44.89;101793.91;1860797;77;20957;-76
2021/03/10 00:40:33;;;;;;;2.37;1.80;;;;;;;-2.43;44.67;101788.73;1860438;77;20991;-75
2021/03/10 00:43:02;;;;;;;3.08;2.20;;;;;;;-2.43;44.43;101797.72;1860236;77;21013;-74
2021/03/10 00:45:31;;;;;;;2.20;2.08;;;;;;;-2.44;44.65;101790.02;1860357;77;20970;-75
2021/03/10 00:47:59;;;;;;;1.70;1.60;;;;;;;-2.40;44.61;101790.47;1860305;77;21024;-78
2021/03/10 00:50:28;;;;;;;4.37;2.17;;;;;;;-2.36;44.41;101794.81;1860339;77;21068;-75
2021/03/10 00:52:57;;;;;;;11.55;5.85;;;;;;;-2.33;44.68;101796.16;1860342;77;20914;-77
2021/03/10 00:55:26;;;;;;;6.55;3.33;;;;;;;-2.25;45.45;101795.80;1860368;77;20964;-76
2021/03/10 00:57:54;;;;;;;4.53;2.87;;;;;;;-2.19;45.79;101798.88;1860470;77;21567;-76
2021/03/10 01:00:23;;;;;;;4.12;2.70;;;;;;;-2.09;46.69;101787.44;1860418;76;21257;-76
2021/03/10 01:02:51;;;;;;;3.33;2.65;;;;;;;-2.05;46.98;101793.45;1860353;77;20953;-76
2021/03/10 01:05:20;;;;;;;4.40;2.98;;;;;;;-1.98;47.25;101787.95;1860475;77;21464;-75
2021/03/10 01:07:47;;;;;;;3.50;2.75;;;;;;;-1.99;46.58;101788.82;1860236;77;20903;-76
2021/03/10 01:10:15;;;;;;;4.67;3.37;;;;;;;-2.03;46.68;101790.91;1860274;77;20922;-77
2021/03/10 01:12:44;;;;;;;4.28;2.65;;;;;;;-2.02;47.12;101796.48;1860290;77;21762;-76
2021/03/10 01:15:16;;;;;;;2.58;2.22;;;;;;;-2.04;46.18;101793.05;1860339;77;20993;-74
2021/03/10 01:17:46;;;;;;;3.58;2.02;;;;;;;-2.07;44.99;101793.00;1860434;77;20915;-74
2021/03/10 01:20:17;;;;;;;2.95;1.92;;;;;;;-2.15;44.75;101803.21;1860264;77;20910;-76
2021/03/10 01:22:45;;;;;;;2.87;2.05;;;;;;;-2.22;44.05;101797.53;1860490;77;20922;-74
2021/03/10 01:25:14;;;;;;;2.50;1.95;;;;;;;-2.28;43.75;101798.77;1860482;77;21321;-76
2021/03/10 01:27:42;;;;;;;3.50;1.87;;;;;;;-2.34;43.44;101805.54;1859713;77;21013;-75
2021/03/10 01:30:12;;;;;;;2.87;1.80;;;;;;;-2.37;43.50;101800.38;1858268;77;21427;-75
2021/03/10 01:32:41;;;;;;;2.58;1.70;;;;;;;-2.35;43.80;101803.83;1858288;76;21466;-75
2021/03/10 01:35:11;;;;;;;4.15;1.85;;;;;;;-2.34;43.60;101804.25;1858374;76;21423;-75
2021/03/10 01:37:40;;;;;;;2.27;1.82;;;;;;;-2.38;43.57;101807.66;1858323;76;21313;-76
2021/03/10 01:40:13;;;;;;;2.25;1.77;;;;;;;-2.43;43.76;101806.72;1858287;77;21307;-75
2021/03/10 01:42:43;;;;;;;1.90;1.80;;;;;;;-2.43;43.65;101806.72;1858681;77;21009;-76
2021/03/10 01:45:13;;;;;;;2.20;2.00;;;;;;;-2.46;44.09;101807.97;1858360;77;20922;-76
2021/03/10 01:47:46;;;;;;;2.35;1.65;;;;;;;-2.50;43.51;101804.48;1858418;77;20998;-77
2021/03/10 01:50:18;;;;;;;2.05;1.85;;;;;;;-2.58;43.43;101807.80;1860107;76;21400;-79
2021/03/10 01:52:46;;;;;;;2.85;2.17;;;;;;;-2.62;43.97;101804.78;1861700;74;20923;-77
2021/03/10 01:55:14;;;;;;;2.42;2.12;;;;;;;-2.62;44.20;101813.33;1861741;76;20914;-74
2021/03/10 01:57:43;;;;;;;1.87;1.77;;;;;;;-2.61;44.14;101815.05;1860436;76;21304;-77
2021/03/10 02:00:12;;;;;;;2.42;2.08;;;;;;;-2.59;44.39;101818.50;1858249;76;20986;-76
2021/03/10 02:02:42;;;;;;;3.42;1.90;;;;;;;-2.60;44.42;101813.33;1858316;77;21355;-75
2021/03/10 02:05:18;;;;;;;2.67;1.50;;;;;;;-2.58;44.54;101816.78;1858203;77;21005;-75
2021/03/10 02:08:11;;;;;;;5.15;1.85;;;;;;;-2.55;44.75;101818.12;1858247;77;20937;-76
2021/03/10 02:11:01;;;;;;;3.67;2.02;;;;;;;-2.55;44.92;101821.55;1858184;76;20997;-75
2021/03/10 02:14:08;;;;;;;5.67;3.60;;;;;;;-2.55;44.89;101816.41;1858384;77;21463;-75
2021/03/10 02:16:50;;;;;;;6.08;3.20;;;;;;;-2.48;45.33;101822.92;1858236;77;21821;-75
2021/03/10 02:19:23;;;;;;;3.87;2.42;;;;;;;-2.42;45.60;101822.58;1858084;76;20964;-74
2021/03/10 02:22:14;;;;;;;2.20;1.85;;;;;;;-2.42;45.70;101829.40;1858162;76;21494;-76
2021/03/10 02:25:10;;;;;;;4.60;2.15;;;;;;;-2.42;44.82;101827.72;1848676;77;21014;-77
2021/03/10 02:27:51;;;;;;;4.58;2.00;;;;;;;-2.41;45.04;101833.28;1859306;76;21006;-79
2021/03/10 02:30:28;;;;;;;3.40;1.92;;;;;;;-2.46;45.14;101834.09;1838687;76;21813;-78
2021/03/10 02:33:03;;;;;;;2.33;1.95;;;;;;;-2.54;44.07;101826.26;1866324;76;20887;-76
2021/03/10 02:35:31;;;;;;;2.92;2.22;;;;;;;-2.66;44.56;101828.25;1866834;76;21341;-78
2021/03/10 02:38:02;;;;;;;4.42;2.22;;;;;;;-2.68;45.08;101827.80;1866597;76;21024;-77
2021/03/10 02:40:30;;;;;;;4.97;3.17;;;;;;;-2.68;44.75;101831.64;1866639;76;20993;-74
2021/03/10 02:42:58;;;;;;;3.52;2.70;;;;;;;-2.64;46.06;101834.70;1866740;76;22264;-76
2021/03/10 02:45:28;;;;;;;6.08;4.15;;;;;;;-2.61;46.74;101839.44;1866492;76;20953;-75
2021/03/10 02:47:57;;;;;;;14.18;5.95;;;;;;;-2.57;46.69;101839.92;1866575;76;20982;-75
2021/03/10 02:50:26;;;;;;;10.95;4.60;;;;;;;-2.54;47.29;101836.10;1866637;76;21277;-77
2021/03/10 02:52:55;;;;;;;14.73;6.45;;;;;;;-2.51;47.60;101834.88;1866670;76;20902;-74
2021/03/10 02:55:23;;;;;;;13.78;7.50;;;;;;;-2.51;48.14;101837.45;1866835;76;21400;-74
2021/03/10 02:57:51;;;;;;;13.90;7.47;;;;;;;-2.56;48.59;101842.06;1866459;76;20950;-75
2021/03/10 03:00:22;;;;;;;12.18;5.15;;;;;;;-2.56;48.41;101841.64;1838225;76;20938;-75
2021/03/10 03:02:50;;;;;;;17.60;5.58;;;;;;;-2.56;49.02;101845.48;1866526;76;20934;-75
2021/03/10 03:05:18;;;;;;;10.13;5.05;;;;;;;-2.56;49.16;101852.34;1866686;76;20914;-76
2021/03/10 03:07:49;;;;;;;6.25;3.42;;;;;;;-2.55;49.27;101860.50;1866640;76;21319;-76
2021/03/10 03:10:20;;;;;;;55.45;20.23;;;;;;;-2.60;49.52;101859.55;1866819;76;21329;-76
2021/03/10 03:12:48;;;;;;;39.75;15.85;;;;;;;-2.66;49.85;101860.77;1866682;76;20918;-75
2021/03/10 03:15:22;;;;;;;35.03;12.73;;;;;;;-2.72;49.75;101863.67;1866580;76;20902;-75
2021/03/10 03:17:50;;;;;;;26.70;10.65;;;;;;;-2.78;49.88;101862.31;1866775;76;20993;-76
2021/03/10 03:20:20;;;;;;;53.05;20.72;;;;;;;-2.81;50.48;101869.95;1866652;76;21344;-76
2021/03/10 03:22:52;;;;;;;62.73;24.20;;;;;;;-2.87;50.66;101875.41;1866569;76;21451;-76
2021/03/10 03:25:24;;;;;;;44.18;15.88;;;;;;;-2.91;50.90;101875.80;1866691;76;21392;-78
2021/03/10 03:27:58;;;;;;;50.98;20.02;;;;;;;-2.99;51.57;101870.96;1865128;76;20945;-76
2021/03/10 03:30:28;;;;;;;42.23;16.93;;;;;;;-3.05;51.15;101871.71;1858488;77;20898;-76
2021/03/10 03:32:56;;;;;;;27.73;12.18;;;;;;;-3.16;51.24;101874.13;1817223;78;21355;-76
2021/03/10 03:35:25;;;;;;;27.05;12.75;;;;;;;-3.26;49.99;101863.68;1787406;80;21384;-77
2021/03/10 03:37:53;;;;;;;34.10;15.30;;;;;;;-3.37;49.81;101866.91;1786670;80;20961;-76
2021/03/10 03:40:23;;;;;;;28.30;13.48;;;;;;;-3.45;50.33;101867.61;1818915;77;21021;-77
2021/03/10 03:42:51;;;;;;;19.10;8.93;;;;;;;-3.50;50.73;101870.52;1818224;79;20993;-78
2021/03/10 03:45:21;;;;;;;21.48;9.80;;;;;;;-3.58;51.04;101875.49;1817931;77;21185;-79
2021/03/10 03:47:54;;;;;;;16.85;8.55;;;;;;;-3.65;51.69;101875.80;1787349;80;21376;-78
2021/03/10 03:50:25;;;;;;;22.27;10.50;;;;;;;-3.71;51.71;101876.09;1818045;78;20996;-78
2021/03/10 03:52:53;;;;;;;15.48;8.75;;;;;;;-3.72;51.94;101881.65;1817936;77;20984;-78
2021/03/10 03:55:21;;;;;;;22.37;9.33;;;;;;;-3.75;52.19;101876.48;1817897;79;20965;-77
2021/03/10 03:57:50;;;;;;;20.57;9.83;;;;;;;-3.75;52.36;101879.89;1787371;80;21439;-77
2021/03/10 04:00:21;;;;;;;22.05;9.90;;;;;;;-3.79;52.96;101875.54;1817766;77;21008;-79
2021/03/10 04:02:50;;;;;;;26.75;11.03;;;;;;;-3.80;53.83;101875.11;1787309;80;21069;-78
2021/03/10 04:05:20;;;;;;;22.45;9.98;;;;;;;-3.85;54.34;101876.69;1817882;77;21641;-79
2021/03/10 04:07:56;;;;;;;24.65;11.00;;;;;;;-3.89;55.44;101879.17;1781365;80;20981;-78
2021/03/10 04:10:33;;;;;;;20.55;9.80;;;;;;;-3.97;56.01;101879.03;1818152;79;21194;-77
2021/03/10 04:13:02;;;;;;;23.62;10.08;;;;;;;-3.99;56.34;101879.41;1817986;77;21348;-77
2021/03/10 04:15:35;;;;;;;20.62;9.88;;;;;;;-4.01;56.60;101883.22;1818182;77;20981;-78
2021/03/10 04:18:04;;;;;;;19.40;9.08;;;;;;;-4.04;56.67;101883.59;1817928;77;21637;-77
2021/03/10 04:20:32;;;;;;;23.83;10.08;;;;;;;-4.08;57.23;101877.53;1785961;79;21032;-78
2021/03/10 04:23:00;;;;;;;21.35;10.78;;;;;;;-4.10;57.09;101882.17;1787480;79;21829;-81
2021/03/10 04:25:29;;;;;;;27.20;11.05;;;;;;;-4.15;57.09;101879.95;1818046;77;20942;-79
2021/03/10 04:27:57;;;;;;;19.50;10.53;;;;;;;-4.21;57.11;101883.23;1818185;77;20922;-76
2021/03/10 04:30:25;;;;;;;24.20;11.85;;;;;;;-4.26;56.71;101886.98;1832040;77;21347;-76
2021/03/10 04:32:53;;;;;;;20.77;11.08;;;;;;;-4.30;56.43;101888.16;1832049;77;20937;-76
2021/03/10 04:35:22;;;;;;;19.12;9.25;;;;;;;-4.33;56.66;101888.97;1831882;77;21752;-76
2021/03/10 04:37:51;;;;;;;19.52;10.45;;;;;;;-4.36;56.99;101888.88;1831877;77;21020;-75
2021/03/10 04:40:19;;;;;;;32.63;18.10;;;;;;;-4.35;57.62;101887.20;1832009;77;21529;-77
2021/03/10 04:42:51;;;;;;;33.10;14.23;;;;;;;-4.31;57.13;101894.98;1831931;77;20922;-79
2021/03/10 04:45:38;;;;;;;30.95;11.55;;;;;;;-4.25;57.13;101893.81;1832119;78;21428;-76
2021/03/10 04:48:24;;;;;;;31.95;14.43;;;;;;;-4.21;57.11;101893.05;1824812;77;21016;-75
2021/03/10 04:50:53;;;;;;;15.80;9.75;;;;;;;-4.10;58.26;101897.13;1831963;78;21024;-77
2021/03/10 04:53:21;;;;;;;19.50;9.65;;;;;;;-4.06;57.71;101896.78;1797588;79;21007;-77
2021/03/10 04:55:49;;;;;;;21.45;10.43;;;;;;;-4.01;56.71;101900.30;1831977;77;21056;-80
2021/03/10 04:58:17;;;;;;;21.75;11.65;;;;;;;-3.93;56.21;101896.62;1831964;78;21367;-76
2021/03/10 05:00:46;;;;;;;27.87;11.95;;;;;;;-3.69;56.12;101900.06;1831882;77;21193;-76
2021/03/10 05:03:14;;;;;;;19.55;11.28;;;;;;;-3.30;56.18;101901.65;1831837;77;20964;-78
2021/03/10 05:05:42;;;;;;;31.25;16.42;;;;;;;-2.76;55.00;101909.81;1832073;77;21415;-76
2021/03/10 05:08:15;;;;;;;22.20;12.18;;;;;;;-2.15;54.07;101906.00;1833838;78;20939;-78
2021/03/10 05:10:43;;;;;;;19.20;12.18;;;;;;;-1.53;52.75;101916.59;1834767;78;20952;-80
2021/03/10 05:13:11;;;;;;;31.15;14.90;;;;;;;-0.98;51.76;101912.38;1835043;77;21172;-78
2021/03/10 05:15:39;;;;;;;29.07;14.33;;;;;;;-0.48;50.89;101913.20;1835689;75;21012;-76
2021/03/10 05:18:08;;;;;;;28.80;14.87;;;;;;;-0.15;49.82;101925.43;1835817;77;21040;-76
2021/03/10 05:20:36;;;;;;;23.87;14.63;;;;;;;0.06;49.35;101916.06;1834909;77;20929;-77
2021/03/10 05:23:04;;;;;;;31.95;15.35;;;;;;;0.18;48.79;101929.88;1832892;77;21012;-78
2021/03/10 05:25:33;;;;;;;19.62;10.38;;;;;;;0.33;48.76;101934.66;1832045;78;21386;-77
2021/03/10 05:28:01;;;;;;;17.90;9.33;;;;;;;0.56;48.20;101930.88;1831819;77;20960;-80
2021/03/10 05:30:29;;;;;;;20.80;10.50;;;;;;;0.78;47.77;101932.64;1823360;77;20967;-78
2021/03/10 05:32:57;;;;;;;16.77;8.48;;;;;;;1.13;47.11;101933.52;1822647;78;20886;-83
2021/03/10 05:35:25;;;;;;;18.92;9.05;;;;;;;1.47;45.86;101934.38;1822975;78;21465;-82
2021/03/10 05:37:54;;;;;;;15.45;8.58;;;;;;;1.81;45.44;101931.73;1822727;78;21353;-84
2021/03/10 05:40:24;;;;;;;11.10;6.42;;;;;;;2.01;44.56;101938.14;1822645;78;21018;-82
2021/03/10 05:42:52;;;;;;;9.83;4.90;;;;;;;2.12;43.75;101937.66;1823029;78;20981;-82
2021/03/10 05:45:20;;;;;;;4.75;4.12;;;;;;;2.12;42.06;101940.70;1822963;78;21003;-81
2021/03/10 05:47:51;;;;;;;9.00;3.98;;;;;;;2.05;42.41;101934.69;1822698;78;20914;-79
2021/03/10 05:50:20;;;;;;;5.92;3.77;;;;;;;2.10;42.11;101943.72;1822579;78;21355;-78
2021/03/10 05:52:49;;;;;;;7.15;4.85;;;;;;;2.19;41.59;101942.39;1791433;78;20942;-78
2021/03/10 05:55:19;;;;;;;12.28;4.58;;;;;;;2.33;41.52;101948.80;1822250;77;21054;-80
2021/03/10 05:57:49;;;;;;;7.37;4.37;;;;;;;2.51;41.35;101947.41;1822391;78;21656;-79
2021/03/10 06:00:18;;;;;;;5.35;3.98;;;;;;;2.84;39.39;101953.27;1822769;78;20936;-79
2021/03/10 06:02:51;;;;;;;15.45;5.33;;;;;;;3.13;38.60;101952.20;1792496;78;21436;-84
2021/03/10 06:05:25;;;;;;;9.55;4.83;;;;;;;3.49;37.39;101953.62;1822346;78;20923;-81
2021/03/10 06:08:07;;;;;;;11.45;5.33;;;;;;;3.81;36.88;101953.77;1822538;78;20926;-81
2021/03/10 06:10:41;;;;;;;;;;;;;;;4.09;35.88;101960.38;1825299;78;21042;-83
2021/03/10 06:13:26;;;;;;;11.50;5.60;;;;;;;4.46;35.74;101965.11;1822444;78;20168;-82
2021/03/10 06:16:00;;;;;;;10.53;5.83;;;;;;;4.80;35.06;101960.74;1822578;78;21487;-84
2021/03/10 06:18:33;;;;;;;8.05;5.00;;;;;;;5.13;34.16;101965.87;1822503;78;20944;-80
2021/03/10 06:21:11;;;;;;;6.37;3.92;;;;;;;5.42;33.16;101973.66;1823629;78;20962;-88
2021/03/10 06:23:53;;;;;;;7.58;3.90;;;;;;;5.49;32.77;101975.70;1825052;78;21031;-87
2021/03/10 06:26:25;;;;;;;6.70;3.75;;;;;;;5.68;33.34;101972.36;1824049;78;21395;-89
2021/03/10 06:28:55;;;;;;;5.62;4.25;;;;;;;6.05;33.17;101969.09;1823130;78;21227;-89
2021/03/10 06:31:31;;;;;;;8.35;4.03;;;;;;;6.43;32.73;101971.80;1823275;78;21404;-86
2021/03/10 06:34:05;;;;;;;7.62;3.65;;;;;;;6.84;31.08;101973.08;1822852;77;21042;-86
2021/03/10 06:36:38;;;;;;;5.40;3.55;;;;;;;7.13;29.87;101976.31;1823285;78;20942;-88
2021/03/10 06:39:17;;;;;;;4.90;3.10;;;;;;;7.26;29.29;101974.27;1822950;78;20951;-87
2021/03/10 06:41:48;;;;;;;7.47;3.70;;;;;;;7.43;29.05;101974.72;1823283;77;21356;-85
2021/03/10 06:44:27;;;;;;;4.55;2.65;;;;;;;7.83;28.33;101970.23;1823384;77;20943;-87
2021/03/10 06:47:04;;;;;;;2.45;2.00;;;;;;;7.97;27.44;101974.61;1822878;78;20965;-83
2021/03/10 06:49:34;;;;;;;4.87;2.37;;;;;;;8.17;26.46;101967.53;1789096;79;20983;-80
2021/03/10 06:52:11;;;;;;;2.98;2.47;;;;;;;8.17;25.79;101975.37;1822499;78;20925;-83
2021/03/10 06:54:58;;;;;;;4.83;3.02;;;;;;;8.03;25.34;101971.84;1822604;77;20959;-84
2021/03/10 06:57:27;;;;;;;4.35;2.67;;;;;;;8.05;25.67;101974.42;1822947;77;21427;-82
2021/03/10 06:59:58;;;;;;;3.60;2.25;;;;;;;8.30;25.17;101978.50;1822539;78;20944;-84
2021/03/10 07:02:28;;;;;;;2.95;2.65;;;;;;;8.60;25.38;101979.37;1790074;80;21529;-82
2021/03/10 07:05:00;;;;;;;4.47;2.08;;;;;;;8.78;25.00;101979.30;1822608;77;21054;-83
2021/03/10 07:07:29;;;;;;;4.53;3.10;;;;;;;8.82;25.08;101988.73;1822912;78;21132;-84
2021/03/10 07:10:02;;;;;;;3.12;2.58;;;;;;;8.98;24.74;101986.53;1819535;77;21047;-84
2021/03/10 07:12:31;;;;;;;3.12;2.65;;;;;;;9.03;23.89;101987.69;1823028;78;20941;-84
2021/03/10 07:15:01;;;;;;;5.37;3.35;;;;;;;8.93;23.90;101985.80;1823173;78;21054;-84
2021/03/10 07:17:31;;;;;;;6.87;3.55;;;;;;;8.95;24.62;101990.53;1823137;78;21016;-83
2021/03/10 07:19:59;;;;;;;4.15;2.98;;;;;;;9.01;23.97;101987.73;1822903;77;21198;-87
2021/03/10 07:22:56;;;;;;;6.55;2.95;;;;;;;9.11;23.89;101994.41;1823539;78;20949;-84
2021/03/10 07:25:28;;;;;;;5.17;2.47;;;;;;;9.16;23.61;101990.75;1815903;78;20928;-81
2021/03/10 07:28:06;;;;;;;4.28;3.20;;;;;;;9.30;24.07;101994.65;1825711;75;21252;-84
2021/03/10 07:30:44;;;;;;;5.55;2.55;;;;;;;9.49;23.68;101985.75;1831660;77;20983;-83
2021/03/10 07:33:15;;;;;;;3.25;2.20;;;;;;;9.63;22.65;101986.58;1835452;75;21881;-87
2021/03/10 07:35:55;;;;;;;2.83;1.87;;;;;;;9.70;22.93;101974.13;1835523;74;21008;-83
2021/03/10 07:38:28;;;;;;;4.33;2.37;;;;;;;9.89;22.31;101973.02;1835272;77;20998;-82
2021/03/10 07:41:05;;;;;;;4.12;2.08;;;;;;;9.55;21.99;101982.05;1831047;77;20943;-83
2021/03/10 07:43:42;;;;;;;2.85;2.08;;;;;;;9.42;22.50;101977.67;1832285;77;21040;-84
2021/03/10 07:46:26;;;;;;;2.30;1.85;;;;;;;9.44;22.66;101976.32;1832539;77;21481;-86
2021/03/10 07:48:56;;;;;;;3.00;2.05;;;;;;;9.34;22.16;101971.39;1832518;78;21071;-83
2021/03/10 07:51:29;;;;;;;2.27;1.87;;;;;;;9.18;22.45;101974.55;1832170;77;21527;-83
2021/03/10 07:53:58;;;;;;;3.80;2.60;;;;;;;9.18;22.24;101980.66;1799225;79;20957;-80
2021/03/10 07:56:32;;;;;;;2.75;1.80;;;;;;;9.13;22.38;101979.94;1832010;78;20927;-83
2021/03/10 07:59:19;;;;;;;3.00;1.80;;;;;;;9.04;22.10;101971.92;1832104;77;22227;-85
2021/03/10 08:01:48;;;;;;;2.27;1.82;;;;;;;8.81;22.84;101966.12;1832013;78;20970;-84
2021/03/10 08:04:17;;;;;;;1.80;1.70;;;;;;;8.70;22.37;101956.44;1832341;77;20948;-82
2021/03/10 08:06:50;;;;;;;3.08;2.05;;;;;;;8.59;22.13;101963.30;1831796;77;21354;-80
2021/03/10 08:09:19;;;;;;;5.67;2.58;;;;;;;8.58;22.95;101961.59;1832348;78;20940;-77
2021/03/10 08:11:51;;;;;;;6.33;2.20;;;;;;;8.88;23.15;101966.32;1831976;78;21699;-83
2021/03/10 08:14:19;;;;;;;3.55;2.00;;;;;;;9.17;22.77;101963.69;1829811;77;20948;-82
2021/03/10 08:16:50;;;;;;;2.90;1.70;;;;;;;9.36;22.06;101962.62;1832037;78;21303;-78
2021/03/10 08:19:23;;;;;;;3.83;2.35;;;;;;;9.38;22.18;101956.42;1831855;77;20957;-80
2021/03/10 08:21:54;;;;;;;5.40;2.05;;;;;;;9.45;22.39;101958.38;1832430;78;21106;-82
2021/03/10 08:24:24;;;;;;;2.08;1.85;;;;;;;9.48;22.61;101951.29;1832447;77;21373;-84
2021/03/10 08:26:58;;;;;;;3.40;1.95;;;;;;;9.50;22.30;101952.09;1832047;78;20994;-85
2021/03/10 08:29:27;;;;;;;2.47;1.85;;;;;;;9.53;21.76;101958.52;1832191;78;20911;-83
2021/03/10 08:31:57;;;;;;;2.55;1.52;;;;;;;9.33;21.25;101962.27;1831951;78;20959;-83
2021/03/10 08:34:36;;;;;;;4.97;1.90;;;;;;;9.03;21.82;101960.22;1832193;77;21002;-83
2021/03/10 08:37:06;;;;;;;3.80;2.30;;;;;;;8.98;21.78;101961.67;1832179;78;22538;-86
2021/03/10 08:39:44;;;;;;;1.72;1.62;;;;;;;9.04;21.64;101961.91;1832117;77;20969;-85
2021/03/10 08:42:18;;;;;;;2.05;1.87;;;;;;;9.10;22.63;101960.42;1832115;77;21050;-87
2021/03/10 08:44:46;;;;;;;2.98;2.50;;;;;;;9.34;22.05;101958.77;1832047;78;20929;-85
2021/03/10 08:47:19;;;;;;;2.12;1.92;;;;;;;9.44;22.06;101948.36;1832232;77;20939;-84
2021/03/10 08:49:55;;;;;;;3.52;2.27;;;;;;;9.55;22.04;101942.30;1832301;77;21187;-83
2021/03/10 08:52:24;;;;;;;3.05;1.95;;;;;;;9.71;21.98;101940.47;1831980;78;21007;-84
2021/03/10 08:54:59;;;;;;;2.02;1.82;;;;;;;9.83;22.15;101943.98;1832008;78;20932;-84
2021/03/10 08:57:35;;;;;;;2.62;2.00;;;;;;;9.89;20.57;101945.51;1832328;78;21348;-85
2021/03/10 09:00:09;;;;;;;6.40;1.87;;;;;;;9.74;21.53;101940.38;1832097;78;20933;-84
2021/03/10 09:02:40;;;;;;;3.08;1.65;;;;;;;9.77;21.62;101941.56;1831151;78;21392;-84
2021/03/10 09:05:10;;;;;;;4.65;2.20;;;;;;;9.72;21.14;101939.58;1831915;77;20949;-84
2021/03/10 09:07:38;;;;;;;2.47;1.70;;;;;;;9.44;21.08;101940.52;1832047;77;20931;-83
2021/03/10 09:10:13;;;;;;;3.95;1.90;;;;;;;9.23;21.14;101947.80;1804319;78;20952;-81
2021/03/10 09:12:46;;;;;;;4.72;2.25;;;;;;;9.07;21.70;101940.44;1832027;77;20931;-84
2021/03/10 09:15:27;;;;;;;2.62;2.08;;;;;;;9.07;21.45;101947.41;1831855;77;21375;-85
2021/03/10 09:18:06;;;;;;;4.30;2.60;;;;;;;8.89;21.85;101951.05;1830340;77;20967;-82
2021/03/10 09:20:39;;;;;;;3.50;2.02;;;;;;;8.85;22.52;101950.73;1831677;78;20925;-79
2021/03/10 09:23:09;;;;;;;3.58;2.47;;;;;;;9.07;22.54;101952.65;1831975;77;20951;-81
2021/03/10 09:25:41;;;;;;;2.20;2.00;;;;;;;9.20;21.89;101944.80;1830892;77;21446;-82
2021/03/10 09:28:20;;;;;;;2.70;2.25;;;;;;;9.36;22.12;101949.53;1829306;77;21585;-80
2021/03/10 09:30:58;;;;;;;3.05;2.58;;;;;;;9.48;22.08;101945.20;1788545;80;20950;-80
2021/03/10 09:33:33;;;;;;;1.97;1.60;;;;;;;9.51;22.46;101934.15;1821944;78;21679;-80
2021/03/10 09:36:02;;;;;;;2.58;2.20;;;;;;;9.46;21.25;101941.78;1790555;78;21184;-80
2021/03/10 09:38:34;;;;;;;3.25;2.40;;;;;;;9.08;21.27;101949.98;1822516;77;21012;-79
2021/03/10 09:41:06;;;;;;;3.00;1.95;;;;;;;8.81;22.11;101950.88;1822123;78;21352;-81
2021/03/10 09:43:36;;;;;;;2.75;2.05;;;;;;;8.74;22.67;101942.37;1822583;77;20921;-82
2021/03/10 09:46:08;;;;;;;3.40;2.58;;;;;;;8.87;22.49;101941.08;1760431;79;21097;-83
2021/03/10 09:48:40;;;;;;;3.08;2.42;;;;;;;8.91;22.52;101941.39;1790717;78;20942;-81
2021/03/10 09:51:15;;;;;;;3.45;2.25;;;;;;;8.89;23.16;101942.31;1822184;77;21012;-80
2021/03/10 09:53:51;;;;;;;10.63;3.47;;;;;;;9.00;22.80;101941.52;1822780;78;22557;-83
2021/03/10 09:56:23;;;;;;;1.90;1.80;;;;;;;9.23;22.61;101939.95;1785144;79;21024;-82
2021/03/10 09:58:58;;;;;;;5.03;2.17;;;;;;;9.23;22.01;101932.09;1817239;79;20912;-83
2021/03/10 10:01:30;;;;;;;3.47;2.20;;;;;;;9.05;22.46;101947.95;1812782;77;20936;-83
2021/03/10 10:03:59;;;;;;;3.65;2.50;;;;;;;9.00;22.42;101936.75;1817448;77;21481;-80
2021/03/10 10:06:28;;;;;;;2.30;2.10;;;;;;;8.89;22.70;101943.62;1816774;77;21797;-81
2021/03/10 10:08:56;;;;;;;3.12;1.65;;;;;;;8.80;22.10;101943.92;1817185;78;21067;-82
2021/03/10 10:11:26;;;;;;;8.88;2.35;;;;;;;8.48;22.78;101943.16;1816602;77;20963;-82
2021/03/10 10:13:55;;;;;;;3.05;2.60;;;;;;;8.40;22.74;101938.56;1817377;79;20947;-83
2021/03/10 10:16:23;;;;;;;4.47;2.62;;;;;;;8.34;23.42;101934.39;1817408;79;21034;-84
2021/03/10 10:18:57;;;;;;;4.25;2.30;;;;;;;8.30;23.81;101931.00;1817436;77;22371;-82
2021/03/10 10:21:22;;;;;;;3.92;2.67;;;;;;;8.43;23.09;101930.22;1817212;77;21011;-81
2021/03/10 10:23:50;;;;;;;3.50;2.60;;;;;;;8.57;22.79;101923.27;1817451;79;21058;-80
2021/03/10 10:26:24;;;;;;;4.12;2.58;;;;;;;8.57;22.62;101915.42;1817382;77;20984;-80
2021/03/10 10:28:52;;;;;;;3.47;2.40;;;;;;;8.58;22.72;101909.30;1817293;77;20987;-81
2021/03/10 10:31:23;;;;;;;5.17;3.05;;;;;;;8.57;22.98;101911.95;1786679;79;21389;-82
2021/03/10 10:33:53;;;;;;;3.65;2.40;;;;;;;8.53;22.77;101903.80;1817255;77;20983;-80
2021/03/10 10:36:21;;;;;;;4.45;2.25;;;;;;;8.47;22.73;101908.32;1817356;77;20987;-81
2021/03/10 10:38:50;;;;;;;2.10;1.72;;;;;;;8.43;22.62;101905.84;1817400;78;21063;-80
2021/03/10 10:41:18;;;;;;;4.50;2.42;;;;;;;8.27;22.59;101902.36;1817347;79;20932;-80
2021/03/10 10:43:47;;;;;;;2.75;1.60;;;;;;;8.10;23.29;101900.22;1817389;77;21188;-82
2021/03/10 10:46:17;;;;;;;3.25;2.40;;;;;;;8.20;22.92;101902.56;1817086;77;20951;-82
2021/03/10 10:48:47;;;;;;;3.35;1.70;;;;;;;8.23;23.02;101901.19;1817337;78;20935;-82
2021/03/10 10:51:19;;;;;;;2.95;1.70;;;;;;;8.24;23.19;101897.66;1816922;77;21388;-82
2021/03/10 10:53:49;;;;;;;6.17;2.77;;;;;;;8.29;23.46;101901.86;1815442;79;21377;-82
2021/03/10 10:56:17;;;;;;;6.90;2.12;;;;;;;8.44;23.04;101899.70;1817251;77;21884;-83
2021/03/10 10:58:46;;;;;;;2.52;2.33;;;;;;;8.42;23.24;101896.28;1817202;78;20955;-82
2021/03/10 11:01:13;;;;;;;7.00;2.83;;;;;;;8.34;22.89;101893.00;1817349;79;21030;-79
2021/03/10 11:03:42;;;;;;;5.25;3.02;;;;;;;8.27;23.57;101890.59;1817327;78;21566;-80
2021/03/10 11:06:11;;;;;;;2.92;2.20;;;;;;;8.30;23.41;101890.48;1817203;78;21034;-79
2021/03/10 11:08:41;;;;;;;2.65;2.02;;;;;;;8.22;23.36;101892.92;1816631;77;21295;-79
2021/03/10 11:11:10;;;;;;;10.78;2.52;;;;;;;8.16;22.99;101888.75;1817158;79;21395;-80
2021/03/10 11:13:41;;;;;;;5.78;2.50;;;;;;;8.07;22.75;101891.61;1817059;77;21026;-79
2021/03/10 11:16:17;;;;;;;2.72;2.15;;;;;;;7.68;23.29;101889.23;1815890;77;21015;-77
2021/03/10 11:18:51;;;;;;;4.87;2.92;;;;;;;7.14;24.40;101884.13;1815678;77;21018;-79
2021/03/10 11:21:19;;;;;;;3.58;2.67;;;;;;;6.93;23.93;101885.51;1817247;77;21817;-78
2021/03/10 11:23:50;;;;;;;3.55;2.25;;;;;;;6.94;24.56;101883.33;1817146;78;21042;-78
2021/03/10 11:26:19;;;;;;;4.28;1.92;;;;;;;7.00;24.26;101881.88;1817189;79;20940;-78
2021/03/10 11:28:48;;;;;;;4.28;2.17;;;;;;;6.92;24.18;101875.98;1817294;77;21126;-77
2021/03/10 11:31:17;;;;;;;3.83;2.00;;;;;;;6.91;24.20;101872.95;1819313;78;20923;-79
2021/03/10 11:33:46;;;;;;;3.50;2.58;;;;;;;6.89;24.12;101872.58;1821014;77;21169;-78
2021/03/10 11:36:16;;;;;;;8.05;2.60;;;;;;;6.80;24.42;101866.72;1820981;78;20939;-79
2021/03/10 11:38:46;;;;;;;2.67;1.95;;;;;;;6.81;24.72;101869.72;1820934;77;20951;-82
2021/03/10 11:41:17;;;;;;;9.68;2.40;;;;;;;6.81;24.49;101864.96;1821061;78;20923;-78
2021/03/10 11:45:31;;;;;;;2.90;2.40;;;;;;;6.98;24.57;101857.59;1816195;79;22601;-80
2021/03/10 11:47:59;;;;;;;2.60;2.40;;;;;;;6.93;24.87;101852.06;1789312;80;20935;-79